^^
Datos históricos de la estación: Murcia-Puente Tocinos
Diario Informe para Enero 20, 2022 Unidades:  Métrico    Ingés   Ambas
Diario Semanal Mensual Anual
  Máxima: Mínima: Promedio:
Temperatura: 13.9 °C 2.6 °C 7.7 °C
Punto de rocio: 6.2 °C 0.2 °C 2.9 °C
Humedad: 85% 52% 73%
Velocidad viento: 11.9km/h 2.3km/h 6km/h
Racha viento: 20.4km/h - -
Viento- - SSE
Presión: 1028.8 hPa 1023.8 hPa -
Precipitación: 0.0 mm    
 
 
Tabla de datos para Enero 20, 2022
Hora Temperatura Punto de rocio Presión Viento Velocidad viento Racha viento Humedad Intensidad lluvia(por hora) Nubes
00:04 6.6 °C 3.1 °C 1028.8 hPa SO 4.7 km/h 7.4 km/h 78% 0.0 mm
00:09 6.6 °C 3.1 °C 1028.8 hPa SO 4.5 km/h 7.4 km/h 78% 0.0 mm
00:14 6.6 °C 3.1 °C 1028.8 hPa SSO 3.9 km/h 7.4 km/h 78% 0.0 mm
00:19 6.6 °C 3.1 °C 1028.8 hPa SSO 3.8 km/h 5.8 km/h 78% 0.0 mm
00:24 6.6 °C 3 °C 1028.8 hPa SO 3.2 km/h 5.6 km/h 78% 0.0 mm
00:29 6.5 °C 2.9 °C 1028.8 hPa SSO 3.2 km/h 7.4 km/h 78% 0.0 mm
00:34 6.3 °C 2.8 °C 1028.8 hPa SSE 3.2 km/h 8.4 km/h 78% 0.0 mm
00:39 6.2 °C 2.7 °C 1028.8 hPa SE 3.5 km/h 8.4 km/h 78% 0.0 mm
00:44 6.1 °C 2.6 °C 1028.7 hPa SE 5 km/h 7.4 km/h 78% 0.0 mm
00:49 6 °C 2.4 °C 1028.7 hPa SSE 4.7 km/h 5.6 km/h 78% 0.0 mm
00:54 5.8 °C 2.5 °C 1028.8 hPa SSE 3.2 km/h 3.9 km/h 78.9% 0.0 mm
00:59 5.8 °C 2.4 °C 1028.8 hPa SSE 3 km/h 4.7 km/h 79% 0.0 mm
01:04 5.8 °C 2.4 °C 1028.8 hPa SSE 2.3 km/h 6.4 km/h 79% 0.0 mm
01:09 5.7 °C 2.4 °C 1028.8 hPa SE 2.5 km/h 8.4 km/h 79.1% 0.0 mm
01:14 5.6 °C 2.3 °C 1028.6 hPa SSE 3.9 km/h 7.6 km/h 79% 0.0 mm
01:19 5.4 °C 2.1 °C 1028.6 hPa SSE 4 km/h 8.4 km/h 79.1% 0.0 mm
01:24 5.3 °C 2.1 °C 1028.6 hPa SSE 4.7 km/h 7.6 km/h 80% 0.0 mm
01:29 5.1 °C 2 °C 1028.6 hPa Sur 4.8 km/h 9.5 km/h 80.3% 0.0 mm
01:34 5.1 °C 2.1 °C 1028.6 hPa SSE 5.8 km/h 8.4 km/h 81% 0.0 mm
01:39 4.9 °C 1.9 °C 1028.6 hPa Sur 5.8 km/h 9.3 km/h 81% 0.0 mm
01:44 4.9 °C 1.9 °C 1028.4 hPa SSE 5.8 km/h 7.6 km/h 81% 0.0 mm
01:49 4.9 °C 1.9 °C 1028.4 hPa SSE 5.8 km/h 9.5 km/h 81% 0.0 mm
01:54 4.8 °C 1.8 °C 1028.5 hPa SSE 5.8 km/h 9.3 km/h 81% 0.0 mm
01:59 4.7 °C 1.7 °C 1028.5 hPa SSE 5.9 km/h 11.1 km/h 81% 0.0 mm
02:04 4.5 °C 1.6 °C 1028.5 hPa Sur 6.4 km/h 11.1 km/h 81.6% 0.0 mm
02:09 4.4 °C 1.6 °C 1028.5 hPa Sur 6.6 km/h 10 km/h 82.1% 0.0 mm
02:14 4.4 °C 1.8 °C 1028.3 hPa Sur 7.6 km/h 9.5 km/h 83% 0.0 mm
02:19 4.4 °C 1.8 °C 1028.3 hPa Sur 7.5 km/h 10 km/h 83% 0.0 mm
02:24 4.4 °C 1.8 °C 1028.3 hPa SSO 6.9 km/h 10 km/h 82.8% 0.0 mm
02:29 4.6 °C 1.9 °C 1028.3 hPa SSO 7 km/h 13 km/h 82.9% 0.0 mm
02:34 4.7 °C 1.9 °C 1028.3 hPa SSO 7.6 km/h 11.9 km/h 82% 0.0 mm
02:39 4.8 °C 1.9 °C 1028.3 hPa SO 7.5 km/h 10 km/h 81.4% 0.0 mm
02:44 4.8 °C 1.8 °C 1028.3 hPa OSO 6.9 km/h 11.1 km/h 81% 0.0 mm
02:49 4.8 °C 1.7 °C 1028.3 hPa SO 6.7 km/h 9.3 km/h 80.5% 0.0 mm
02:54 4.8 °C 1.7 °C 1028.3 hPa SO 5.8 km/h 9.3 km/h 80% 0.0 mm
02:59 4.8 °C 1.7 °C 1028.3 hPa SSO 5.9 km/h 9.5 km/h 80% 0.0 mm
03:04 4.9 °C 1.7 °C 1028.3 hPa SSO 6.4 km/h 11.1 km/h 80% 0.0 mm
03:09 4.9 °C 1.7 °C 1028.3 hPa Sur 6.6 km/h 10 km/h 80% 0.0 mm
03:14 4.9 °C 1.7 °C 1028.1 hPa Sur 7.6 km/h 11.1 km/h 80% 0.0 mm
03:19 5 °C 1.8 °C 1028.1 hPa Sur 7.6 km/h 11.9 km/h 80% 0.0 mm
03:24 5.1 °C 1.9 °C 1028.1 hPa Sur 7.6 km/h 11.1 km/h 79.8% 0.0 mm
03:29 4.9 °C 1.6 °C 1028.1 hPa SSE 7.4 km/h 10 km/h 79% 0.0 mm
03:34 4.7 °C 1.4 °C 1028.1 hPa SSE 6.4 km/h 10 km/h 79% 0.0 mm
03:39 4.5 °C 1.3 °C 1028.1 hPa SSE 6.4 km/h 9.5 km/h 79.8% 0.0 mm
03:44 4.3 °C 1.1 °C 1028.0 hPa SSE 6.4 km/h 11.9 km/h 80.1% 0.0 mm
03:49 4 °C 1.1 °C 1028.0 hPa SSE 6.7 km/h 13 km/h 81.2% 0.0 mm
03:54 3.9 °C 1.1 °C 1028.1 hPa SSE 8.4 km/h 13 km/h 82% 0.0 mm
03:59 3.8 °C 1.1 °C 1028.1 hPa Sur 8.4 km/h 11.9 km/h 82.8% 0.0 mm
04:04 3.8 °C 1.2 °C 1028.1 hPa Sur 8.4 km/h 13 km/h 83% 0.0 mm
04:09 3.9 °C 1.3 °C 1028.1 hPa SSO 8.4 km/h 13.7 km/h 83% 0.0 mm
04:14 4 °C 1.4 °C 1027.9 hPa SSO 8.7 km/h 13 km/h 83% 0.0 mm
04:19 4.1 °C 1.3 °C 1027.9 hPa SSO 8.6 km/h 13 km/h 82.4% 0.0 mm
04:24 4.1 °C 1.3 °C 1027.9 hPa SSO 8.4 km/h 13.7 km/h 82% 0.0 mm
04:29 4.1 °C 1.3 °C 1027.9 hPa SSO 8.4 km/h 13 km/h 82% 0.0 mm
04:34 4.1 °C 1.3 °C 1027.9 hPa SSO 8.7 km/h 14.8 km/h 82% 0.0 mm
04:39 4.1 °C 1.3 °C 1027.9 hPa SSO 8.8 km/h 14.8 km/h 82% 0.0 mm
04:44 4.1 °C 1.1 °C 1027.8 hPa Sur 9.5 km/h 14.8 km/h 81.1% 0.0 mm
04:49 4 °C 1.1 °C 1027.8 hPa SSO 9.5 km/h 13 km/h 81% 0.0 mm
04:54 4 °C 1.1 °C 1027.8 hPa SSO 9.5 km/h 11.1 km/h 81.1% 0.0 mm
04:59 4 °C 1.1 °C 1027.8 hPa SO 8.9 km/h 10 km/h 81% 0.0 mm
05:04 4.1 °C 1.1 °C 1027.8 hPa Sur 6.4 km/h 10 km/h 81% 0.0 mm
05:09 4 °C 1 °C 1027.8 hPa Sur 6.3 km/h 8.4 km/h 81% 0.0 mm
05:14 3.9 °C 0.9 °C 1027.6 hPa SSE 5.8 km/h 8.4 km/h 81% 0.0 mm
05:19 3.8 °C 0.8 °C 1027.6 hPa Sur 5.8 km/h 9.3 km/h 81% 0.0 mm
05:24 3.7 °C 0.8 °C 1027.6 hPa Sur 5.8 km/h 9.3 km/h 81.4% 0.0 mm
05:29 3.6 °C 0.8 °C 1027.5 hPa Sur 5.8 km/h 8.4 km/h 82% 0.0 mm
05:34 3.6 °C 0.8 °C 1027.5 hPa Sur 5.8 km/h 8.4 km/h 82% 0.0 mm
05:39 3.5 °C 0.8 °C 1027.5 hPa Sur 5.8 km/h 8.4 km/h 82.5% 0.0 mm
05:44 3.5 °C 0.9 °C 1027.5 hPa SSE 5.8 km/h 8.4 km/h 83% 0.0 mm
05:49 3.4 °C 0.8 °C 1027.5 hPa SSE 5.8 km/h 9.5 km/h 83% 0.0 mm
05:54 3.3 °C 0.7 °C 1027.5 hPa SSE 5.8 km/h 8.7 km/h 83% 0.0 mm
05:59 3.3 °C 0.6 °C 1027.5 hPa SSE 5.9 km/h 9.5 km/h 83% 0.0 mm
06:04 3.2 °C 0.7 °C 1027.5 hPa SSE 6.4 km/h 9.5 km/h 83.5% 0.0 mm
06:09 3.2 °C 0.7 °C 1027.5 hPa Sur 6.4 km/h 10 km/h 84% 0.0 mm
06:14 3.1 °C 0.7 °C 1027.5 hPa SSE 6.4 km/h 11.1 km/h 84% 0.0 mm
06:19 3 °C 0.6 °C 1027.5 hPa Sur 6.5 km/h 11.1 km/h 84% 0.0 mm
06:24 3.1 °C 0.6 °C 1027.5 hPa Sur 6.9 km/h 10 km/h 84% 0.0 mm
06:29 3.1 °C 0.6 °C 1027.5 hPa SSO 6.9 km/h 9.3 km/h 84.1% 0.0 mm
06:34 3.1 °C 0.8 °C 1027.5 hPa Sur 6.4 km/h 8.4 km/h 85% 0.0 mm
06:39 3.1 °C 0.8 °C 1027.7 hPa SSO 6.3 km/h 7.6 km/h 85% 0.0 mm
06:44 3.1 °C 0.8 °C 1027.7 hPa SO 5.8 km/h 7.4 km/h 85% 0.0 mm
06:49 3.2 °C 0.9 °C 1027.7 hPa SSO 5.6 km/h 7.4 km/h 84.6% 0.0 mm
06:54 3.2 °C 0.8 °C 1027.8 hPa Sur 4.7 km/h 7.4 km/h 84% 0.0 mm
06:59 3.2 °C 0.8 °C 1027.8 hPa Sur 4.7 km/h 7.4 km/h 84% 0.0 mm
07:04 3.2 °C 0.7 °C 1027.8 hPa SSE 4.7 km/h 9.5 km/h 84% 0.0 mm
07:09 3.1 °C 0.7 °C 1027.8 hPa SSE 4.7 km/h 8.7 km/h 84% 0.0 mm
07:14 3 °C 0.6 °C 1027.8 hPa SSE 5 km/h 9.3 km/h 84% 0.0 mm
07:19 2.9 °C 0.5 °C 1027.8 hPa Sur 5.1 km/h 8.4 km/h 84% 0.0 mm
07:24 2.9 °C 0.4 °C 1027.9 hPa Sur 5.8 km/h 10 km/h 84% 0.0 mm
07:29 2.9 °C 0.4 °C 1027.9 hPa Sur 5.8 km/h 9.3 km/h 84% 0.0 mm
07:34 2.9 °C 0.4 °C 1027.9 hPa SSE 5.8 km/h 8.4 km/h 84% 0.0 mm
07:39 2.8 °C 0.4 °C 1027.9 hPa SSE 5.8 km/h 7.6 km/h 84% 0.0 mm
07:44 2.8 °C 0.4 °C 1027.7 hPa Sur 5.8 km/h 9.3 km/h 84% 0.0 mm
07:49 2.8 °C 0.4 °C 1027.7 hPa Sur 5.7 km/h 7.4 km/h 84% 0.0 mm
07:54 2.8 °C 0.4 °C 1027.7 hPa Sur 5 km/h 5.8 km/h 84.2% 0.0 mm
07:59 2.8 °C 0.5 °C 1027.7 hPa SO 4.8 km/h 7.6 km/h 85% 0.0 mm
08:00 2.8 °C 0.5 °C 1027.7 hPa SO 3.9 km/h 5.8 km/h 85% 0.0 mm
08:19 2.9 °C 0.4 °C 1027.6 hPa SSE 4.8 km/h 6.9 km/h 83.2% 0.0 mm
08:24 2.9 °C 0.3 °C 1027.6 hPa SSE 5 km/h 11.1 km/h 83% 0.0 mm
08:29 2.8 °C 0.3 °C 1027.4 hPa Sur 5.2 km/h 11.1 km/h 83.6% 0.0 mm
08:34 2.7 °C 0.3 °C 1027.4 hPa SSE 6.9 km/h 10.3 km/h 84% 0.0 mm
08:39 2.6 °C 0.2 °C 1027.5 hPa SSE 6.9 km/h 11.1 km/h 84% 0.0 mm
08:44 2.6 °C 0.3 °C 1027.5 hPa Sur 6.4 km/h 7.6 km/h 84.9% 0.0 mm
08:49 2.6 °C 0.3 °C 1027.5 hPa Sur 6.2 km/h 8.7 km/h 85% 0.0 mm
08:54 2.7 °C 0.4 °C 1027.8 hPa SSO 5 km/h 9.3 km/h 85% 0.0 mm
08:59 2.7 °C 0.4 °C 1027.8 hPa SSO 5.1 km/h 9.3 km/h 84.9% 0.0 mm
09:04 2.7 °C 0.3 °C 1027.8 hPa Sur 5.8 km/h 10 km/h 84% 0.0 mm
09:09 2.8 °C 0.4 °C 1028.1 hPa Sur 5.8 km/h 10 km/h 84% 0.0 mm
09:14 2.8 °C 0.4 °C 1028.1 hPa Sur 5.8 km/h 9.5 km/h 84% 0.0 mm
09:19 2.8 °C 0.4 °C 1028.1 hPa Sur 6 km/h 11.1 km/h 83.9% 0.0 mm
09:24 2.9 °C 0.3 °C 1028.3 hPa Sur 6.9 km/h 11.1 km/h 83% 0.0 mm
09:29 2.9 °C 0.3 °C 1028.3 hPa Sur 6.9 km/h 11.1 km/h 83% 0.0 mm
09:34 3.1 °C 0.4 °C 1028.3 hPa SSO 6.9 km/h 13.7 km/h 82.8% 0.0 mm
09:39 3.2 °C 0.4 °C 1028.3 hPa Sur 7 km/h 10.3 km/h 82% 0.0 mm
09:44 3.3 °C 0.4 °C 1028.3 hPa Sur 7.6 km/h 14.8 km/h 81.3% 0.0 mm
09:49 3.2 °C 0.3 °C 1028.3 hPa SSE 7.8 km/h 13.7 km/h 81% 0.0 mm
09:54 3.1 °C 0.3 °C 1028.3 hPa SSE 9.5 km/h 15.6 km/h 81.9% 0.0 mm
09:59 3 °C 0.3 °C 1028.1 hPa Sur 9.6 km/h 14.8 km/h 82.5% 0.0 mm
10:04 3.1 °C 0.5 °C 1028.1 hPa Sur 10.3 km/h 13.7 km/h 83% 0.0 mm
10:09 3.3 °C 0.5 °C 1028.4 hPa Sur 10.2 km/h 14.8 km/h 82.3% 0.0 mm
10:14 3.4 °C 0.6 °C 1028.4 hPa SSO 9.5 km/h 13 km/h 81.6% 0.0 mm
10:19 3.7 °C 0.7 °C 1028.4 hPa SSO 9.2 km/h 11.1 km/h 81% 0.0 mm
10:24 3.9 °C 0.8 °C 1028.5 hPa SSO 7.6 km/h 10 km/h 80.2% 0.0 mm
10:29 4.2 °C 1 °C 1028.5 hPa SO 7.4 km/h 9.5 km/h 79.5% 0.0 mm
10:34 4.4 °C 0.9 °C 1028.5 hPa SO 6.4 km/h 11.1 km/h 78.1% 0.0 mm
10:39 4.7 °C 1 °C 1028.6 hPa SO 6.4 km/h 10 km/h 77.2% 0.0 mm
10:44 4.9 °C 1 °C 1028.6 hPa OSO 5.8 km/h 8.4 km/h 76.1% 0.0 mm
10:49 5.2 °C 1.1 °C 1028.6 hPa SO 5.6 km/h 9.5 km/h 74.7% 0.0 mm
10:54 5.5 °C 1.2 °C 1028.6 hPa SSO 4.7 km/h 8.7 km/h 73.8% 0.0 mm
10:59 5.8 °C 1.2 °C 1028.6 hPa SSO 4.9 km/h 9.5 km/h 72.4% 0.0 mm
11:04 6.2 °C 1.4 °C 1028.6 hPa Sur 5.8 km/h 11.1 km/h 71.3% 0.0 mm
11:09 6.4 °C 1.2 °C 1028.6 hPa SSO 6 km/h 9.5 km/h 69.5% 0.0 mm
11:14 6.6 °C 1.3 °C 1028.5 hPa SSO 6.9 km/h 8.4 km/h 69% 0.0 mm
11:19 6.7 °C 1.1 °C 1028.5 hPa SO 6.8 km/h 9.5 km/h 67.5% 0.0 mm
11:24 6.8 °C 1.1 °C 1028.6 hPa OSO 5.8 km/h 11.1 km/h 67% 0.0 mm
11:29 7 °C 1.3 °C 1028.6 hPa SSO 5.8 km/h 11.1 km/h 67% 0.0 mm
11:34 7.2 °C 1.3 °C 1028.6 hPa SSO 5.8 km/h 11.1 km/h 66% 0.0 mm
11:39 7.4 °C 1.3 °C 1028.6 hPa Sur 5.9 km/h 13 km/h 65.1% 0.0 mm
11:44 7.6 °C 1.4 °C 1028.3 hPa Sur 6.9 km/h 11.9 km/h 64.6% 0.0 mm
11:49 7.8 °C 1.4 °C 1028.3 hPa SSO 7 km/h 11.1 km/h 64.2% 0.0 mm
11:54 7.9 °C 1.5 °C 1028.3 hPa Sur 7.6 km/h 10 km/h 64% 0.0 mm
11:59 8.2 °C 1.6 °C 1028.1 hPa SSO 7.4 km/h 11.9 km/h 63.1% 0.0 mm
12:04 8.3 °C 1.6 °C 1028.1 hPa SSO 6.4 km/h 11.9 km/h 63% 0.0 mm
12:09 8.2 °C 1.6 °C 1028.1 hPa SSO 6.5 km/h 11.1 km/h 63.1% 0.0 mm
12:14 8.3 °C 1.8 °C 1027.9 hPa SSO 6.9 km/h 13.7 km/h 63.2% 0.0 mm
12:19 8.6 °C 1.8 °C 1027.9 hPa Sur 6.9 km/h 14 km/h 62.3% 0.0 mm
12:24 8.8 °C 1.9 °C 1027.9 hPa Sur 6.9 km/h 14.8 km/h 62% 0.0 mm
12:29 9.1 °C 2.1 °C 1027.8 hPa Sur 6.9 km/h 11.1 km/h 61.3% 0.0 mm
12:34 9.3 °C 2.2 °C 1027.8 hPa SSO 6.9 km/h 11.1 km/h 60.9% 0.0 mm
12:39 9.4 °C 2.1 °C 1027.8 hPa Sur 6.8 km/h 11.1 km/h 60% 0.0 mm
12:44 9.7 °C 2.2 °C 1027.6 hPa Sur 6.4 km/h 10 km/h 59.9% 0.0 mm
12:49 9.8 °C 2.2 °C 1027.6 hPa SSO 6.5 km/h 11.1 km/h 59.6% 0.0 mm
12:54 10 °C 2.3 °C 1027.6 hPa SSE 6.9 km/h 12.2 km/h 59.1% 0.0 mm
12:59 10.2 °C 2.3 °C 1027.4 hPa SSO 6.7 km/h 13 km/h 58.1% 0.0 mm
13:04 10.4 °C 2.4 °C 1027.4 hPa SSO 5.8 km/h 11.1 km/h 57.7% 0.0 mm
13:09 10.6 °C 2.6 °C 1027.4 hPa SSE 5.8 km/h 9.3 km/h 57.7% 0.0 mm
13:14 10.9 °C 2.7 °C 1026.8 hPa SSO 5.8 km/h 9.5 km/h 57% 0.0 mm
13:19 11.1 °C 2.9 °C 1026.8 hPa SSO 5.8 km/h 10 km/h 57% 0.0 mm
13:24 11.2 °C 3 °C 1026.8 hPa SO 5.8 km/h 9.5 km/h 57% 0.0 mm
13:29 11.3 °C 3.1 °C 1026.5 hPa SSE 5.8 km/h 9.3 km/h 57% 0.0 mm
13:34 11.6 °C 3.1 °C 1026.5 hPa ESE 5.8 km/h 11.1 km/h 56.1% 0.0 mm
13:39 11.7 °C 3.3 °C 1026.5 hPa SSE 5.7 km/h 8.7 km/h 56.4% 0.0 mm
13:44 11.9 °C 3.5 °C 1026.2 hPa SE 5 km/h 9.3 km/h 56.4% 0.0 mm
13:49 12.2 °C 3.6 °C 1026.2 hPa Sur 4.9 km/h 7.4 km/h 56% 0.0 mm
13:54 12.3 °C 3.7 °C 1026.2 hPa SSO 3.9 km/h 9.3 km/h 55.5% 0.0 mm
13:59 12.4 °C 3.7 °C 1025.8 hPa Oeste 4 km/h 7.4 km/h 55.3% 0.0 mm
14:04 12.4 °C 3.6 °C 1025.8 hPa Oeste 4.7 km/h 7.4 km/h 55% 0.0 mm
14:09 12.4 °C 3.7 °C 1025.8 hPa Oeste 4.5 km/h 5.6 km/h 55.4% 0.0 mm
14:14 12.6 °C 3.9 °C 1025.5 hPa North 3.9 km/h 10 km/h 55.7% 0.0 mm
14:19 12.7 °C 3.9 °C 1025.5 hPa NE 3.9 km/h 7.4 km/h 55% 0.0 mm
14:24 12.9 °C 4 °C 1025.5 hPa Este 3.9 km/h 11.9 km/h 54.9% 0.0 mm
14:29 13.1 °C 4.1 °C 1025.2 hPa NE 4 km/h 11.1 km/h 54.3% 0.0 mm
14:34 13.2 °C 4.1 °C 1025.2 hPa NE 5 km/h 11.1 km/h 54% 0.0 mm
14:39 13.3 °C 4.2 °C 1025.2 hPa NE 5.1 km/h 13 km/h 54% 0.0 mm
14:44 13.4 °C 4.3 °C 1025.0 hPa NNE 5.8 km/h 11.9 km/h 54% 0.0 mm
14:49 13.5 °C 4.1 °C 1025.0 hPa NNE 5.7 km/h 11.1 km/h 53.2% 0.0 mm
14:54 13.6 °C 4.2 °C 1025.0 hPa NNE 5 km/h 8.4 km/h 53.3% 0.0 mm
14:59 13.6 °C 4.2 °C 1024.8 hPa NE 5 km/h 11.1 km/h 53% 0.0 mm
15:04 13.6 °C 4.2 °C 1024.8 hPa NE 5 km/h 11.9 km/h 53% 0.0 mm
15:09 13.7 °C 4.2 °C 1024.8 hPa NNE 5.2 km/h 13 km/h 53% 0.0 mm
15:14 13.6 °C 4.2 °C 1024.5 hPa North 6.4 km/h 13.7 km/h 53% 0.0 mm
15:19 13.6 °C 4.2 °C 1024.5 hPa NE 6.6 km/h 14.8 km/h 53% 0.0 mm
15:24 13.7 °C 4.2 °C 1024.5 hPa NNE 7.6 km/h 14 km/h 53% 0.0 mm
15:29 13.7 °C 4.1 °C 1024.3 hPa NE 7.3 km/h 14.8 km/h 52.3% 0.0 mm
15:34 13.7 °C 4 °C 1024.3 hPa NE 5.8 km/h 9.5 km/h 52% 0.0 mm
15:39 13.7 °C 4 °C 1024.3 hPa North 5.6 km/h 5.8 km/h 52% 0.0 mm
15:44 13.9 °C 4.2 °C 1024.0 hPa NE 4.7 km/h 11.9 km/h 52% 0.0 mm
15:49 13.9 °C 4.2 °C 1024.0 hPa NNE 4.9 km/h 11.9 km/h 52% 0.0 mm
15:54 13.9 °C 4.2 °C 1024.0 hPa NNE 6.4 km/h 16.4 km/h 52% 0.0 mm
15:59 13.8 °C 4.3 °C 1023.9 hPa NNE 6.8 km/h 16.7 km/h 52.7% 0.0 mm
16:04 13.8 °C 4.4 °C 1023.9 hPa NNE 8.4 km/h 13 km/h 53% 0.0 mm
16:09 13.8 °C 4.4 °C 1023.9 hPa ENE 8.4 km/h 16.7 km/h 53% 0.0 mm
16:14 13.8 °C 4.4 °C 1023.8 hPa ENE 8.4 km/h 15.6 km/h 53% 0.0 mm
16:19 13.7 °C 4.3 °C 1023.8 hPa NE 8.4 km/h 16.7 km/h 53% 0.0 mm
16:24 13.7 °C 4.3 °C 1023.8 hPa NE 8.7 km/h 14.8 km/h 53% 0.0 mm
16:29 13.7 °C 4.4 °C 1023.8 hPa NE 8.6 km/h 13 km/h 53.6% 0.0 mm
16:34 13.7 °C 4.6 °C 1023.8 hPa NE 8.4 km/h 17.2 km/h 54% 0.0 mm
16:39 13.7 °C 4.5 °C 1023.9 hPa NE 8.6 km/h 20.4 km/h 54% 0.0 mm
16:44 13.6 °C 4.4 °C 1023.9 hPa NE 10 km/h 16.7 km/h 54% 0.0 mm
16:49 13.6 °C 4.4 °C 1023.9 hPa NE 9.9 km/h 19 km/h 54% 0.0 mm
16:54 13.6 °C 4.4 °C 1024.1 hPa NE 9.5 km/h 16.7 km/h 54% 0.0 mm
16:59 13.6 °C 4.4 °C 1024.1 hPa NE 9.8 km/h 19 km/h 54% 0.0 mm
17:04 13.5 °C 4.4 °C 1024.1 hPa NE 11.1 km/h 19 km/h 54% 0.0 mm
17:09 13.5 °C 4.4 °C 1024.1 hPa NE 11.2 km/h 16.7 km/h 54.2% 0.0 mm
17:14 13.5 °C 4.6 °C 1024.1 hPa NE 11.9 km/h 17.2 km/h 54.9% 0.0 mm
17:19 13.4 °C 4.7 °C 1024.1 hPa NE 11.6 km/h 14.8 km/h 55.4% 0.0 mm
17:24 13.4 °C 4.8 °C 1024.3 hPa NE 9.5 km/h 13.7 km/h 56% 0.0 mm
17:29 13.4 °C 4.8 °C 1024.3 hPa NE 9.2 km/h 13.7 km/h 56.3% 0.0 mm
17:34 13.3 °C 4.9 °C 1024.3 hPa Este 7.6 km/h 13 km/h 57% 0.0 mm
17:39 13.2 °C 4.8 °C 1024.3 hPa Este 7.5 km/h 13 km/h 57% 0.0 mm
17:44 13 °C 4.8 °C 1024.1 hPa Este 6.9 km/h 10 km/h 57.6% 0.0 mm
17:49 12.8 °C 4.8 °C 1024.1 hPa Este 6.6 km/h 8.4 km/h 58% 0.0 mm
17:54 12.7 °C 4.8 °C 1024.1 hPa Este 5 km/h 7.4 km/h 58.6% 0.0 mm
17:59 12.7 °C 4.8 °C 1024.1 hPa ESE 4.8 km/h 8.4 km/h 59% 0.0 mm
18:04 12.6 °C 4.8 °C 1024.1 hPa Este 3.9 km/h 7.4 km/h 59.3% 0.0 mm
18:09 12.4 °C 4.9 °C 1024.2 hPa ENE 3.9 km/h 6.4 km/h 60% 0.0 mm
18:14 12.3 °C 4.8 °C 1024.2 hPa ENE 3.9 km/h 7.4 km/h 60% 0.0 mm
18:19 12.2 °C 4.9 °C 1024.2 hPa ENE 4 km/h 7.6 km/h 60.6% 0.0 mm
18:24 12.2 °C 4.9 °C 1024.3 hPa ENE 4.7 km/h 7.4 km/h 61% 0.0 mm
18:29 12.1 °C 4.8 °C 1024.3 hPa ENE 4.7 km/h 10 km/h 61% 0.0 mm
18:34 12 °C 4.8 °C 1024.3 hPa NE 4.7 km/h 8.4 km/h 61.2% 0.0 mm
18:39 11.9 °C 4.8 °C 1024.4 hPa ENE 4.9 km/h 13 km/h 62% 0.0 mm
18:44 11.8 °C 5 °C 1024.4 hPa ENE 5.8 km/h 13 km/h 62.9% 0.0 mm
18:49 11.7 °C 5 °C 1024.4 hPa ENE 5.9 km/h 9.3 km/h 63.7% 0.0 mm
18:54 11.4 °C 5 °C 1024.6 hPa ENE 6.4 km/h 7.4 km/h 64.7% 0.0 mm
18:59 11.3 °C 5.1 °C 1024.6 hPa ENE 6 km/h 5.8 km/h 65.6% 0.0 mm
19:04 11.2 °C 5.2 °C 1024.6 hPa ENE 3.9 km/h 5.8 km/h 66.7% 0.0 mm
19:09 11 °C 5.3 °C 1024.7 hPa NE 3.9 km/h 7.4 km/h 67.6% 0.0 mm
19:14 10.9 °C 5.3 °C 1024.7 hPa NE 3.9 km/h 8.4 km/h 68.6% 0.0 mm
19:19 10.8 °C 5.5 °C 1024.7 hPa NE 4.1 km/h 9.5 km/h 69.8% 0.0 mm
19:24 10.7 °C 5.5 °C 1024.7 hPa NE 5.8 km/h 7.4 km/h 70.4% 0.0 mm
19:29 10.6 °C 5.6 °C 1024.7 hPa NE 5.6 km/h 7.4 km/h 71% 0.0 mm
19:34 10.6 °C 5.7 °C 1024.7 hPa NNE 4.7 km/h 7.4 km/h 71.8% 0.0 mm
19:39 10.4 °C 5.6 °C 1024.8 hPa NNE 4.7 km/h 7.4 km/h 72.1% 0.0 mm
19:44 10.4 °C 5.7 °C 1024.8 hPa NE 5 km/h 7.4 km/h 73% 0.0 mm
19:49 10.3 °C 5.8 °C 1024.8 hPa NE 4.9 km/h 5.6 km/h 73.7% 0.0 mm
19:54 10.3 °C 5.9 °C 1024.9 hPa North 4.7 km/h 5.8 km/h 74% 0.0 mm
19:59 10.2 °C 5.7 °C 1024.9 hPa North 4.5 km/h 7.4 km/h 74% 0.0 mm
20:04 10 °C 5.6 °C 1024.9 hPa NNO 3.9 km/h 3.9 km/h 74% 0.0 mm
20:09 9.9 °C 5.6 °C 1024.9 hPa NNO 3.6 km/h 3.9 km/h 74.5% 0.0 mm
20:14 9.8 °C 5.6 °C 1024.8 hPa NNO 2.3 km/h 4.7 km/h 75% 0.0 mm
20:19 9.7 °C 5.5 °C 1024.8 hPa NNO 2.4 km/h 4.7 km/h 75% 0.0 mm
20:24 9.7 °C 5.6 °C 1024.8 hPa NNO 2.9 km/h 4.7 km/h 75.5% 0.0 mm
20:29 9.6 °C 5.6 °C 1024.8 hPa NNO 2.8 km/h 3.9 km/h 76% 0.0 mm
20:34 9.6 °C 5.7 °C 1024.8 hPa NNO 2.3 km/h 5.8 km/h 76.7% 0.0 mm
20:39 9.7 °C 5.8 °C 1024.8 hPa North 2.5 km/h 7.4 km/h 77% 0.0 mm
20:44 9.7 °C 5.8 °C 1024.8 hPa North 3.9 km/h 7.4 km/h 77% 0.0 mm
20:49 9.7 °C 5.9 °C 1024.8 hPa NNE 4 km/h 5.8 km/h 77.3% 0.0 mm
20:54 9.8 °C 6 °C 1024.8 hPa NNE 4.7 km/h 7.4 km/h 77.6% 0.0 mm
20:59 9.8 °C 6.2 °C 1024.7 hPa NNE 4.7 km/h 7.4 km/h 78% 0.0 mm
21:04 9.7 °C 6.1 °C 1024.7 hPa NNE 5 km/h 7.4 km/h 78% 0.0 mm
21:09 9.7 °C 6 °C 1024.7 hPa NNE 4.8 km/h 5.8 km/h 77.8% 0.0 mm
21:14 9.7 °C 6 °C 1024.7 hPa NE 3.9 km/h 5.8 km/h 78% 0.0 mm
21:19 9.6 °C 5.9 °C 1024.7 hPa NE 3.8 km/h 5.6 km/h 78% 0.0 mm
21:24 9.5 °C 5.9 °C 1024.7 hPa NE 3.2 km/h 5.6 km/h 78% 0.0 mm
21:29 9.4 °C 5.8 °C 1024.7 hPa North 3.2 km/h 5.8 km/h 78% 0.0 mm
21:34 9.3 °C 5.7 °C 1024.7 hPa ONO 3.2 km/h 7.6 km/h 78% 0.0 mm
21:39 9.1 °C 5.5 °C 1024.8 hPa Oeste 3.4 km/h 7.4 km/h 78.3% 0.0 mm
21:44 8.9 °C 5.4 °C 1024.8 hPa Oeste 4.7 km/h 7.4 km/h 79% 0.0 mm
21:49 8.8 °C 5.4 °C 1024.8 hPa OSO 4.7 km/h 7.4 km/h 79.4% 0.0 mm
21:54 8.8 °C 5.6 °C 1024.8 hPa SO 4.7 km/h 8.4 km/h 80% 0.0 mm
21:59 8.8 °C 5.7 °C 1024.7 hPa SSO 4.7 km/h 7.4 km/h 80.9% 0.0 mm
22:04 8.8 °C 5.8 °C 1024.7 hPa SSE 5 km/h 7.4 km/h 81% 0.0 mm
22:09 8.9 °C 5.6 °C 1024.9 hPa SSE 5 km/h 7.4 km/h 80.1% 0.0 mm
22:14 8.8 °C 5.6 °C 1024.9 hPa SSE 5 km/h 9.3 km/h 80% 0.0 mm
22:19 8.7 °C 5.3 °C 1024.9 hPa SSE 5 km/h 7.6 km/h 79.4% 0.0 mm
22:24 8.4 °C 5.2 °C 1024.9 hPa SSE 5 km/h 7.6 km/h 80% 0.0 mm
22:29 8.2 °C 5 °C 1024.9 hPa SSE 4.9 km/h 7.6 km/h 80% 0.0 mm
22:34 8.1 °C 4.9 °C 1024.9 hPa ESE 4.7 km/h 8.7 km/h 80% 0.0 mm
22:39 7.9 °C 4.5 °C 1025.1 hPa SE 4.7 km/h 10 km/h 79.3% 0.0 mm
22:44 7.5 °C 4.3 °C 1025.1 hPa SE 5 km/h 10 km/h 79.8% 0.0 mm
22:49 7.4 °C 4.3 °C 1025.1 hPa SSE 5.2 km/h 10 km/h 80.8% 0.0 mm
22:54 7.3 °C 4.3 °C 1025.2 hPa SSE 6.4 km/h 10 km/h 81% 0.0 mm
22:59 7.4 °C 4.3 °C 1025.2 hPa Sur 6.5 km/h 11.1 km/h 81% 0.0 mm
23:04 7.5 °C 4.4 °C 1025.2 hPa SSO 6.9 km/h 9.3 km/h 81% 0.0 mm
23:09 7.6 °C 4.5 °C 1025.2 hPa SSE 6.9 km/h 9.3 km/h 80.9% 0.0 mm
23:14 7.7 °C 4.4 °C 1025.2 hPa Sur 6.4 km/h 10.3 km/h 80% 0.0 mm
23:19 7.8 °C 4.5 °C 1025.2 hPa SSO 6.5 km/h 11.1 km/h 80% 0.0 mm
23:24 7.8 °C 4.6 °C 1025.2 hPa SSO 6.9 km/h 11.1 km/h 80% 0.0 mm
23:29 7.9 °C 4.5 °C 1025.2 hPa SSO 6.9 km/h 9.5 km/h 79.2% 0.0 mm
23:34 7.9 °C 4.5 °C 1025.2 hPa SO 6.9 km/h 11.1 km/h 79% 0.0 mm
23:39 7.9 °C 4.5 °C 1025.2 hPa SO 6.9 km/h 9.3 km/h 79% 0.0 mm
23:44 8 °C 4.6 °C 1025.2 hPa SO 6.4 km/h 11.1 km/h 79% 0.0 mm
23:49 8 °C 4.6 °C 1025.2 hPa SO 6.2 km/h 7.6 km/h 79% 0.0 mm
23:54 8 °C 4.6 °C 1025.2 hPa SSO 5 km/h 9.5 km/h 79% 0.0 mm
23:59 8 °C 4.5 °C 1025.2 hPa SO 5.1 km/h 10.3 km/h 78.8% 0.0 mm
Murcia-Puente Tocinos, Espa?a
Compliments of Weather Underground - 3 mb

La estación de MeteoMurcia.com, publica sus datos en los siguientes proyectos:

Weather Underground PWS IMURCIAP2 Meteoclimatic www.awekas.at

W3Counter
Web Analytics